createdAt,value
2018-09-23T09:23:05.087Z,1864.00
2018-09-23T09:24:05.081Z,1900.00
2018-09-23T09:25:05.043Z,1984.00
2018-09-23T09:26:05.011Z,2324.00
2018-09-23T09:27:05.023Z,2724.00
2018-09-23T09:28:04.987Z,3108.00
2018-09-23T09:29:04.954Z,3960.00
2018-09-23T09:30:04.959Z,5084.00
2018-09-23T09:31:04.914Z,5612.00
2018-09-23T09:32:04.919Z,5380.00
2018-09-23T09:33:04.886Z,4532.00
2018-09-23T09:34:04.858Z,3860.00
2018-09-23T09:35:04.856Z,3528.00
2018-09-23T09:36:04.846Z,3040.00
2018-09-23T09:37:04.790Z,3628.00
2018-09-23T09:38:04.788Z,3968.00
2018-09-23T09:39:04.749Z,4592.00
2018-09-23T09:40:04.752Z,4272.00
2018-09-23T09:41:04.707Z,3800.00
2018-09-23T09:42:04.699Z,3124.00
2018-09-23T09:43:04.677Z,2520.00
2018-09-23T09:44:04.676Z,2660.00
2018-09-23T09:45:04.638Z,3196.00
2018-09-23T09:46:04.625Z,3136.00
2018-09-23T09:47:04.606Z,2512.00
2018-09-23T09:48:04.564Z,2216.00
2018-09-23T09:49:04.558Z,2388.00
2018-09-23T09:50:04.544Z,2388.00
2018-09-23T09:51:04.507Z,2320.00
2018-09-23T09:52:04.521Z,2424.00
2018-09-23T09:53:04.487Z,2648.00
2018-09-23T09:54:04.454Z,2244.00
2018-09-23T09:55:04.427Z,1760.00
2018-09-23T09:56:04.418Z,1344.00
2018-09-23T09:57:04.417Z,1432.00
2018-09-23T09:58:04.403Z,1672.00
2018-09-23T09:59:04.360Z,1972.00
2018-09-23T10:00:04.370Z,2324.00
2018-09-23T10:01:04.329Z,2608.00
2018-09-23T10:02:04.328Z,2612.00
2018-09-23T10:03:04.276Z,2624.00
2018-09-23T10:04:04.305Z,2384.00
2018-09-23T10:05:04.262Z,2828.00
2018-09-23T10:06:04.230Z,3700.00
2018-09-23T10:07:04.188Z,3544.00
2018-09-23T10:08:04.170Z,3864.00
2018-09-23T10:09:04.175Z,4072.00
2018-09-23T10:10:04.134Z,3988.00
2018-09-23T10:11:04.124Z,3440.00
2018-09-23T10:12:04.124Z,2684.00
2018-09-23T10:13:04.099Z,1812.00
2018-09-23T10:14:04.059Z,1444.00
2018-09-23T10:15:04.038Z,1700.00
2018-09-23T10:16:04.033Z,1836.00
2018-09-23T10:17:03.999Z,1376.00
2018-09-23T10:18:03.975Z,1296.00
2018-09-23T10:19:03.966Z,1608.00
2018-09-23T10:20:03.932Z,1640.00
2018-09-23T10:21:03.936Z,1748.00
2018-09-23T10:22:03.891Z,1856.00
2018-09-23T10:23:03.942Z,1880.00
2018-09-23T10:24:03.850Z,1848.00
2018-09-23T10:25:03.857Z,1592.00
2018-09-23T10:26:03.814Z,1560.00
2018-09-23T10:27:03.810Z,1596.00
2018-09-23T10:28:03.790Z,1628.00
2018-09-23T10:29:03.760Z,1708.00
2018-09-23T10:30:03.737Z,1712.00
2018-09-23T10:31:03.770Z,1324.00
2018-09-23T10:32:03.713Z,1716.00
2018-09-23T10:33:03.683Z,1368.00
2018-09-23T10:34:03.668Z,1552.00
2018-09-23T10:35:03.657Z,1040.00
2018-09-23T10:36:03.671Z,896.00
2018-09-23T10:37:03.595Z,744.00
2018-09-23T10:38:03.570Z,816.00
2018-09-23T10:39:03.565Z,872.00
2018-09-23T10:40:03.556Z,920.00
2018-09-23T10:41:03.510Z,908.00
2018-09-23T10:42:03.539Z,1084.00
2018-09-23T10:43:03.484Z,920.00
2018-09-23T10:44:03.453Z,1184.00
2018-09-23T10:45:03.426Z,1296.00
2018-09-23T10:46:03.431Z,1484.00
2018-09-23T10:47:03.417Z,1372.00
2018-09-23T10:48:03.371Z,1260.00
2018-09-23T10:49:03.357Z,1608.00
2018-09-23T10:50:03.325Z,1232.00
2018-09-23T10:51:03.300Z,932.00
2018-09-23T10:52:03.281Z,768.00
2018-09-23T10:53:03.268Z,736.00
2018-09-23T10:54:03.245Z,748.00
2018-09-23T10:55:03.261Z,756.00
2018-09-23T10:56:03.208Z,812.00
2018-09-23T10:57:03.196Z,748.00
2018-09-23T10:58:03.159Z,856.00
2018-09-23T10:59:03.158Z,896.00
2018-09-23T11:00:03.131Z,940.00
2018-09-23T11:01:03.103Z,732.00
2018-09-23T11:02:03.107Z,820.00
2018-09-23T11:03:03.054Z,868.00
2018-09-23T11:04:03.203Z,996.00
2018-09-23T11:05:03.043Z,1040.00
2018-09-23T11:06:03.006Z,1200.00
2018-09-23T11:07:03.012Z,1332.00
2018-09-23T11:08:02.959Z,1204.00
2018-09-23T11:09:02.960Z,1340.00
2018-09-23T11:10:02.940Z,1560.00
2018-09-23T11:11:02.912Z,1616.00
2018-09-23T11:12:02.891Z,2320.00
2018-09-23T11:13:02.852Z,2912.00
2018-09-23T11:14:02.827Z,2636.00
2018-09-23T11:15:02.808Z,2764.00
2018-09-23T11:16:02.801Z,2896.00
2018-09-23T11:17:02.803Z,3068.00
2018-09-23T11:18:02.750Z,3504.00
2018-09-23T11:19:02.772Z,3536.00
2018-09-23T11:20:02.728Z,3196.00
2018-09-23T11:21:02.694Z,1940.00
2018-09-23T11:22:02.667Z,1304.00
2018-09-23T11:23:02.641Z,1872.00
2018-09-23T11:24:02.627Z,3224.00
2018-09-23T11:25:02.621Z,4072.00
2018-09-23T11:26:02.577Z,4916.00
2018-09-23T11:27:02.587Z,3808.00
2018-09-23T11:28:02.553Z,3376.00
2018-09-23T11:29:02.516Z,2624.00
2018-09-23T11:30:02.516Z,2884.00
2018-09-23T11:31:02.503Z,3772.00
2018-09-23T11:32:02.452Z,5548.00
2018-09-23T11:33:02.458Z,6168.00
2018-09-23T11:34:02.445Z,4996.00
2018-09-23T11:35:02.427Z,5104.00
2018-09-23T11:36:02.367Z,5208.00
2018-09-23T11:37:02.381Z,4000.00
2018-09-23T11:38:02.329Z,3440.00
2018-09-23T11:39:02.312Z,2548.00
2018-09-23T11:40:02.347Z,2728.00
2018-09-23T11:41:02.301Z,2144.00
2018-09-23T11:42:02.263Z,1704.00
2018-09-23T11:43:02.282Z,1792.00
2018-09-23T11:44:02.260Z,1844.00
2018-09-23T11:45:02.198Z,1964.00
2018-09-23T11:46:02.192Z,3020.00
2018-09-23T11:47:02.178Z,3116.00
2018-09-23T11:48:02.141Z,3500.00
2018-09-23T11:49:02.101Z,2360.00
2018-09-23T11:50:02.103Z,2080.00
2018-09-23T11:51:02.059Z,2428.00
2018-09-23T11:52:02.057Z,2668.00
2018-09-23T11:53:02.025Z,2172.00
2018-09-23T11:54:02.069Z,1692.00
2018-09-23T11:55:02.009Z,1644.00
2018-09-23T11:56:01.966Z,1960.00
2018-09-23T11:57:01.931Z,1324.00
2018-09-23T11:58:01.915Z,968.00
2018-09-23T11:59:01.957Z,968.00
2018-09-23T12:00:01.886Z,792.00
2018-09-23T12:01:01.855Z,772.00
2018-09-23T12:02:01.867Z,820.00
2018-09-23T12:03:01.840Z,1092.00
2018-09-23T12:04:01.814Z,1136.00
2018-09-23T12:05:01.820Z,1092.00
2018-09-23T12:06:01.783Z,1568.00
2018-09-23T12:07:01.761Z,1592.00
2018-09-23T12:09:24.885Z,2160.00
2018-09-23T12:10:24.832Z,2444.00
2018-09-23T12:11:24.744Z,2712.00
2018-09-23T12:12:24.759Z,2576.00
2018-09-23T12:13:24.708Z,2624.00
2018-09-23T12:14:24.728Z,1980.00
2018-09-23T12:15:24.661Z,1260.00
2018-09-23T12:16:24.635Z,1128.00
2018-09-23T12:18:47.796Z,1760.00
2018-09-23T12:21:10.805Z,908.00
2018-09-23T12:22:10.701Z,932.00
2018-09-23T12:23:10.721Z,1244.00
2018-09-23T12:25:33.913Z,1228.00
2018-09-23T12:27:56.952Z,1568.00
2018-09-23T12:30:20.032Z,1716.00
2018-09-23T12:32:43.227Z,544.00
2018-09-23T12:35:05.986Z,760.00
2018-09-23T12:37:29.128Z,884.00
2018-09-23T12:38:28.855Z,1212.00
2018-09-23T12:40:51.912Z,1376.00
2018-09-23T12:43:15.250Z,1488.00
2018-09-23T12:45:38.487Z,1424.00
2018-09-23T12:48:01.025Z,2700.00
2018-09-23T12:50:24.549Z,3300.00
2018-09-23T12:51:24.091Z,2400.00
2018-09-23T12:53:47.087Z,2924.00
2018-09-23T12:56:10.055Z,1716.00
2018-09-23T12:58:43.125Z,1348.00
2018-09-23T13:01:06.190Z,1428.00
2018-09-23T13:03:20.139Z,1720.00
2018-09-23T13:04:28.226Z,1988.00
2018-09-23T13:06:13.913Z,1912.00
2018-09-23T13:08:36.825Z,2956.00
2018-09-23T13:11:00.638Z,4004.00
2018-09-23T13:12:09.631Z,3552.00
2018-09-23T13:13:55.308Z,2508.00
2018-09-23T13:14:55.386Z,1860.00
2018-09-23T13:15:55.049Z,1652.00
2018-09-23T13:16:55.296Z,1260.00
2018-09-23T13:19:17.754Z,1344.00
2018-09-23T13:20:17.283Z,1084.00
2018-09-23T13:21:17.283Z,1148.00
2018-09-23T13:23:40.227Z,1620.00
2018-09-23T13:26:03.508Z,2204.00
2018-09-23T13:28:26.483Z,1780.00
2018-09-23T13:29:26.506Z,1608.00
2018-09-23T13:31:49.395Z,1724.00
2018-09-23T13:32:58.717Z,2824.00
